Time;durP1;ratioP1;P1;durP2;ratioP2;P2;SDS_P1;SDS_P2;PMS_P1;PMS_P2;Temp;Humidity;BMP_temperature;BMP_pressure;BME280_temperature;BME280_humidity;BME280_pressure;Samples;Min_cycle;Max_cycle;Signal;HPM_P1;HPM_P2
2022/09/11 00:00:42;;;;;;;;;;;;;;;;;;5118077;27;19916;-85
2022/09/11 00:03:08;;;;;;;;;;;;;;;;;;5124561;27;19973;-84
2022/09/11 00:05:38;;;;;;;;;;;;;;;;;;5097441;28;19916;-84
2022/09/11 00:08:03;;;;;;;;;;;;;;;;;;5114488;28;19922;-84
2022/09/11 00:10:31;;;;;;;;;;;;;;;;;;5116374;28;19916;-84
2022/09/11 00:12:57;;;;;;;;;;;;;;;;;;5096938;28;19927;-84
2022/09/11 00:15:27;;;;;;;;;;;;;;;;;;5115894;28;19980;-86
2022/09/11 00:17:56;;;;;;;;;;;;;;;;;;5115479;28;19923;-84
2022/09/11 00:20:23;;;;;;;;;;;;;;;;;;5115238;27;19920;-84
2022/09/11 00:22:48;;;;;;;;;;;;;;;;;;5115101;28;19919;-84
2022/09/11 00:25:14;;;;;;;;;;;;;;;;;;5115120;28;20308;-84
2022/09/11 00:27:39;;;;;;;;;;;;;;;;;;5115150;28;19916;-84
2022/09/11 00:30:05;;;;;;;;;;;;;;;;;;5114923;28;19911;-84
2022/09/11 00:32:32;;;;;;;;;;;;;;;;;;5115053;28;20389;-84
2022/09/11 00:34:57;;;;;;;;;;;;;;;;;;5116490;27;20387;-84
2022/09/11 00:37:23;;;;;;;;;;;;;;;;;;5135390;27;19919;-85
2022/09/11 00:39:49;;;;;;;;;;;;;;;;;;5135153;27;19946;-85
2022/09/11 00:42:14;;;;;;;;;;;;;;;;;;5110895;28;20295;-85
2022/09/11 00:44:40;;;;;;;;;;;;;;;;;;5117810;27;19920;-85
2022/09/11 00:47:08;;;;;;;;;;;;;;;;;;5124545;27;19915;-84
2022/09/11 00:49:42;;;;;;;;;;;;;;;;;;5116749;27;20075;-84
2022/09/11 00:52:19;;;;;;;;;;;;;;;;;;5115176;27;19930;-85
2022/09/11 00:55:04;;;;;;;;;;;;;;;;;;5113559;27;19926;-84
2022/09/11 00:57:32;;;;;;;;;;;;;;;;;;5139135;27;20294;-85
2022/09/11 00:59:58;;;;;;;;;;;;;;;;;;5116311;27;19919;-83
2022/09/11 01:02:27;;;;;;;;;;;;;;;;;;5134714;27;19920;-84
2022/09/11 01:04:53;;;;;;;;;;;;;;;;;;5134729;27;19926;-84
2022/09/11 01:07:19;;;;;;;;;;;;;;;;;;5110892;28;19923;-84
2022/09/11 01:09:46;;;;;;;;;;;;;;;;;;5115082;28;19922;-85
2022/09/11 01:12:18;;;;;;;;;;;;;;;;;;5115079;28;19959;-84
2022/09/11 01:14:59;;;;;;;;;;;;;;;;;;5096582;28;20643;-85
2022/09/11 01:17:33;;;;;;;;;;;;;;;;;;5115192;28;19961;-84
2022/09/11 01:20:17;;;;;;;;;;;;;;;;;;5114957;28;19930;-84
2022/09/11 01:22:43;;;;;;;;;;;;;;;;;;5117640;28;20371;-85
2022/09/11 01:25:14;;;;;;;;;;;;;;;;;;5135446;27;19945;-85
2022/09/11 01:27:42;;;;;;;;;;;;;;;;;;5136096;27;19915;-86
2022/09/11 01:30:18;;;;;;;;;;;;;;;;;;5117169;27;20367;-85
2022/09/11 01:32:50;;;;;;;;;;;;;;;;;;5135964;27;19950;-87
2022/09/11 01:35:34;;;;;;;;;;;;;;;;;;5135768;27;19956;-85
2022/09/11 01:38:02;;;;;;;;;;;;;;;;;;5135560;27;20362;-83
2022/09/11 01:40:44;;;;;;;;;;;;;;;;;;5134200;27;19921;-84
2022/09/11 01:43:15;;;;;;;;;;;;;;;;;;5135636;28;19922;-85
2022/09/11 01:45:43;;;;;;;;;;;;;;;;;;5113034;28;19970;-84
2022/09/11 01:48:08;;;;;;;;;;;;;;;;;;5114584;28;19939;-87
2022/09/11 01:50:36;;;;;;;;;;;;;;;;;;5114685;28;20374;-84
2022/09/11 01:53:04;;;;;;;;;;;;;;;;;;5114748;28;20390;-84
2022/09/11 01:55:40;;;;;;;;;;;;;;;;;;5106962;28;20376;-86
2022/09/11 01:58:12;;;;;;;;;;;;;;;;;;5094314;28;19916;-84
2022/09/11 02:00:38;;;;;;;;;;;;;;;;;;5094194;28;19956;-84
2022/09/11 02:03:14;;;;;;;;;;;;;;;;;;5093933;28;19923;-85
2022/09/11 02:06:00;;;;;;;;;;;;;;;;;;5092413;28;19916;-86
2022/09/11 02:08:58;;;;;;;;;;;;;;;;;;5097430;28;19941;-84
2022/09/11 02:11:24;;;;;;;;;;;;;;;;;;5112699;28;19920;-86
2022/09/11 02:13:52;;;;;;;;;;;;;;;;;;5095116;28;19927;-85
2022/09/11 02:16:20;;;;;;;;;;;;;;;;;;5093662;28;20379;-86
2022/09/11 02:19:00;;;;;;;;;;;;;;;;;;5093657;28;19916;-85
2022/09/11 02:21:26;;;;;;;;;;;;;;;;;;5094002;28;19920;-86
2022/09/11 02:23:54;;;;;;;;;;;;;;;;;;5094201;28;19916;-86
2022/09/11 02:26:20;;;;;;;;;;;;;;;;;;5094829;28;19915;-84
2022/09/11 02:28:46;;;;;;;;;;;;;;;;;;5094296;28;20090;-84
2022/09/11 02:31:11;;;;;;;;;;;;;;;;;;5108136;28;20006;-87
2022/09/11 02:33:37;;;;;;;;;;;;;;;;;;5118277;27;19916;-84
2022/09/11 02:36:18;;;;;;;;;;;;;;;;;;5109843;28;19927;-85
2022/09/11 02:39:03;;;;;;;;;;;;;;;;;;5100412;28;19916;-88
2022/09/11 02:41:38;;;;;;;;;;;;;;;;;;5097595;28;19920;-86
2022/09/11 02:44:06;;;;;;;;;;;;;;;;;;5106273;28;19927;-86
2022/09/11 02:46:35;;;;;;;;;;;;;;;;;;5130042;27;19923;-85
2022/09/11 02:49:30;;;;;;;;;;;;;;;;;;5141725;27;19983;-88
2022/09/11 02:52:09;;;;;;;;;;;;;;;;;;5054727;28;19977;-84
2022/09/11 02:54:53;;;;;;;;;;;;;;;;;;5051232;28;19924;-85
2022/09/11 02:57:33;;;;;;;;;;;;;;;;;;5038174;28;19992;-85
2022/09/11 03:00:00;;;;;;;;;;;;;;;;;;5037193;28;20396;-86
2022/09/11 03:02:26;;;;;;;;;;;;;;;;;;5038715;28;20355;-83
2022/09/11 03:04:52;;;;;;;;;;;;;;;;;;5043444;28;19987;-84
2022/09/11 03:07:17;;;;;;;;;;;;;;;;;;5057664;28;19951;-85
2022/09/11 03:09:44;;;;;;;;;;;;;;;;;;5054311;28;20394;-87
2022/09/11 03:12:10;;;;;;;;;;;;;;;;;;5054440;28;19963;-84
2022/09/11 03:14:37;;;;;;;;;;;;;;;;;;5037520;28;20006;-85
2022/09/11 03:17:03;;;;;;;;;;;;;;;;;;5037175;28;20054;-84
2022/09/11 03:19:29;;;;;;;;;;;;;;;;;;5053492;28;20023;-85
2022/09/11 03:21:55;;;;;;;;;;;;;;;;;;5034159;28;20010;-84
2022/09/11 03:24:20;;;;;;;;;;;;;;;;;;5034206;28;19923;-85
2022/09/11 03:26:45;;;;;;;;;;;;;;;;;;5035575;28;19917;-87
2022/09/11 03:29:11;;;;;;;;;;;;;;;;;;5106838;28;19920;-84
2022/09/11 03:31:36;;;;;;;;;;;;;;;;;;5116984;28;20371;-84
2022/09/11 03:34:02;;;;;;;;;;;;;;;;;;5116557;28;20291;-85
2022/09/11 03:36:27;;;;;;;;;;;;;;;;;;5129134;27;19915;-86
2022/09/11 03:38:54;;;;;;;;;;;;;;;;;;5118574;27;19915;-84
2022/09/11 03:41:20;;;;;;;;;;;;;;;;;;5137047;27;19919;-85
2022/09/11 03:43:45;;;;;;;;;;;;;;;;;;5136954;27;19920;-84
2022/09/11 03:46:11;;;;;;;;;;;;;;;;;;5138055;27;19969;-85
2022/09/11 03:48:36;;;;;;;;;;;;;;;;;;5137926;27;19916;-85
2022/09/11 03:51:04;;;;;;;;;;;;;;;;;;5137243;27;19915;-86
2022/09/11 03:53:31;;;;;;;;;;;;;;;;;;5132523;27;19934;-84
2022/09/11 03:55:57;;;;;;;;;;;;;;;;;;5119782;27;19915;-87
2022/09/11 03:58:24;;;;;;;;;;;;;;;;;;5125319;27;20022;-85
2022/09/11 04:00:49;;;;;;;;;;;;;;;;;;5131707;27;19919;-85
2022/09/11 04:03:15;;;;;;;;;;;;;;;;;;5129891;27;19926;-85
2022/09/11 04:05:43;;;;;;;;;;;;;;;;;;5124905;27;19982;-88
2022/09/11 04:08:12;;;;;;;;;;;;;;;;;;5117965;27;20010;-93
2022/09/11 04:10:37;;;;;;;;;;;;;;;;;;5115318;27;20014;-86
2022/09/11 04:13:03;;;;;;;;;;;;;;;;;;5124505;27;19959;-86
2022/09/11 04:15:29;;;;;;;;;;;;;;;;;;5124292;27;19945;-85
2022/09/11 04:17:56;;;;;;;;;;;;;;;;;;5124685;27;19915;-85
2022/09/11 04:20:22;;;;;;;;;;;;;;;;;;5133070;27;19963;-86
2022/09/11 04:22:47;;;;;;;;;;;;;;;;;;5135545;27;19926;-85
2022/09/11 04:25:13;;;;;;;;;;;;;;;;;;5135671;27;20437;-86
2022/09/11 04:27:38;;;;;;;;;;;;;;;;;;5135647;27;19924;-86
2022/09/11 04:30:04;;;;;;;;;;;;;;;;;;5116732;27;19919;-87
2022/09/11 04:32:30;;;;;;;;;;;;;;;;;;5136010;27;19919;-87
2022/09/11 04:34:55;;;;;;;;;;;;;;;;;;5135176;27;19915;-88
2022/09/11 04:37:21;;;;;;;;;;;;;;;;;;5116656;27;19915;-86
2022/09/11 04:39:47;;;;;;;;;;;;;;;;;;5135011;27;19915;-86
2022/09/11 04:42:13;;;;;;;;;;;;;;;;;;5131888;27;19960;-86
2022/09/11 04:44:39;;;;;;;;;;;;;;;;;;5134495;27;19931;-86
2022/09/11 04:47:04;;;;;;;;;;;;;;;;;;5115613;27;20340;-87
2022/09/11 04:49:30;;;;;;;;;;;;;;;;;;5134733;27;19922;-86
2022/09/11 04:52:01;;;;;;;;;;;;;;;;;;5134758;27;19916;-86
2022/09/11 04:54:27;;;;;;;;;;;;;;;;;;5134073;27;19923;-86
2022/09/11 04:56:53;;;;;;;;;;;;;;;;;;5131697;27;19916;-85
2022/09/11 04:59:22;;;;;;;;;;;;;;;;;;5134373;27;19919;-87
2022/09/11 05:01:48;;;;;;;;;;;;;;;;;;5133658;27;19924;-86
2022/09/11 05:04:14;;;;;;;;;;;;;;;;;;5136318;27;19926;-86
2022/09/11 05:06:41;;;;;;;;;;;;;;;;;;5137806;27;19916;-85
2022/09/11 05:09:07;;;;;;;;;;;;;;;;;;5135567;27;19919;-86
2022/09/11 05:11:33;;;;;;;;;;;;;;;;;;5135211;27;19921;-84
2022/09/11 05:13:59;;;;;;;;;;;;;;;;;;5135748;27;19919;-86
2022/09/11 05:16:28;;;;;;;;;;;;;;;;;;5136441;27;19930;-86
2022/09/11 05:18:53;;;;;;;;;;;;;;;;;;5117880;27;19928;-87
2022/09/11 05:21:21;;;;;;;;;;;;;;;;;;5107292;28;19961;-87
2022/09/11 05:23:47;;;;;;;;;;;;;;;;;;5129731;27;19920;-88
2022/09/11 05:26:14;;;;;;;;;;;;;;;;;;5128332;27;20552;-86
2022/09/11 05:28:39;;;;;;;;;;;;;;;;;;5138788;27;19916;-87
2022/09/11 05:31:15;;;;;;;;;;;;;;;;;;5131107;27;19920;-86
2022/09/11 05:33:41;;;;;;;;;;;;;;;;;;5116097;28;19916;-85
2022/09/11 05:36:07;;;;;;;;;;;;;;;;;;5125227;27;19930;-86
2022/09/11 05:38:35;;;;;;;;;;;;;;;;;;5136854;27;19923;-88
2022/09/11 05:41:05;;;;;;;;;;;;;;;;;;5137626;27;19958;-85
2022/09/11 05:43:30;;;;;;;;;;;;;;;;;;5136978;27;19916;-86
2022/09/11 05:45:57;;;;;;;;;;;;;;;;;;5114261;28;19926;-86
2022/09/11 05:48:22;;;;;;;;;;;;;;;;;;5115028;28;20007;-86
2022/09/11 05:50:51;;;;;;;;;;;;;;;;;;5116432;28;19970;-86
2022/09/11 05:53:17;;;;;;;;;;;;;;;;;;5111572;28;20011;-85
2022/09/11 05:55:42;;;;;;;;;;;;;;;;;;5120898;28;20351;-86
2022/09/11 05:58:08;;;;;;;;;;;;;;;;;;5116194;28;20282;-86
2022/09/11 06:00:33;;;;;;;;;;;;;;;;;;5115954;28;20278;-86
2022/09/11 06:02:58;;;;;;;;;;;;;;;;;;5117026;28;19920;-85
2022/09/11 06:05:24;;;;;;;;;;;;;;;;;;5114322;28;20026;-86
2022/09/11 06:07:50;;;;;;;;;;;;;;;;;;5118535;28;19920;-86
2022/09/11 06:10:16;;;;;;;;;;;;;;;;;;5117267;28;20386;-86
2022/09/11 06:12:41;;;;;;;;;;;;;;;;;;5118014;28;20382;-85
2022/09/11 06:15:08;;;;;;;;;;;;;;;;;;5114459;28;19970;-87
2022/09/11 06:17:33;;;;;;;;;;;;;;;;;;5107973;28;19973;-86
2022/09/11 06:19:58;;;;;;;;;;;;;;;;;;5110106;28;19953;-85
2022/09/11 06:22:24;;;;;;;;;;;;;;;;;;5110008;28;19942;-87
2022/09/11 06:24:49;;;;;;;;;;;;;;;;;;5110125;28;19919;-87
2022/09/11 06:27:24;;;;;;;;;;;;;;;;;;5113386;28;19920;-87
2022/09/11 06:29:50;;;;;;;;;;;;;;;;;;5111087;28;19926;-86
2022/09/11 06:32:15;;;;;;;;;;;;;;;;;;5107533;28;20424;-86
2022/09/11 06:34:41;;;;;;;;;;;;;;;;;;5111895;28;20358;-86
2022/09/11 06:37:06;;;;;;;;;;;;;;;;;;5110029;28;20371;-86
2022/09/11 06:39:33;;;;;;;;;;;;;;;;;;5103987;28;20458;-85
2022/09/11 06:41:58;;;;;;;;;;;;;;;;;;5110291;28;19927;-86
2022/09/11 06:44:26;;;;;;;;;;;;;;;;;;5108785;28;19920;-86
2022/09/11 06:46:51;;;;;;;;;;;;;;;;;;5145521;27;19915;-85
2022/09/11 06:49:16;;;;;;;;;;;;;;;;;;5155824;27;19919;-85
2022/09/11 06:51:42;;;;;;;;;;;;;;;;;;5121227;27;19927;-87
2022/09/11 06:54:07;;;;;;;;;;;;;;;;;;5123408;27;19957;-85
2022/09/11 06:56:33;;;;;;;;;;;;;;;;;;5143640;27;19919;-86
2022/09/11 06:58:59;;;;;;;;;;;;;;;;;;5138345;27;19919;-85
2022/09/11 07:01:25;;;;;;;;;;;;;;;;;;5138794;27;20370;-85
2022/09/11 07:03:52;;;;;;;;;;;;;;;;;;5138747;27;19917;-85
2022/09/11 07:06:19;;;;;;;;;;;;;;;;;;5138422;27;19955;-87
2022/09/11 07:08:50;;;;;;;;;;;;;;;;;;5138885;27;19920;-87
2022/09/11 07:11:17;;;;;;;;;;;;;;;;;;5138009;27;19985;-87
2022/09/11 07:13:43;;;;;;;;;;;;;;;;;;5121081;27;19972;-85
2022/09/11 07:16:09;;;;;;;;;;;;;;;;;;5118775;27;19959;-85
2022/09/11 07:18:35;;;;;;;;;;;;;;;;;;5108524;28;19996;-85
2022/09/11 07:21:12;;;;;;;;;;;;;;;;;;5119749;28;20010;-86
2022/09/11 07:23:39;;;;;;;;;;;;;;;;;;5120789;28;19916;-86
2022/09/11 07:26:06;;;;;;;;;;;;;;;;;;5132631;27;19916;-85
2022/09/11 07:28:32;;;;;;;;;;;;;;;;;;5140933;27;19958;-86
2022/09/11 07:31:11;;;;;;;;;;;;;;;;;;5122897;27;19915;-86
2022/09/11 07:33:44;;;;;;;;;;;;;;;;;;5123154;27;20014;-86
2022/09/11 07:36:13;;;;;;;;;;;;;;;;;;5141360;27;20006;-86
2022/09/11 07:38:47;;;;;;;;;;;;;;;;;;5121187;27;19916;-86
2022/09/11 07:41:13;;;;;;;;;;;;;;;;;;5139003;27;19915;-86
2022/09/11 07:43:40;;;;;;;;;;;;;;;;;;5120909;27;20381;-85
2022/09/11 07:46:06;;;;;;;;;;;;;;;;;;5129233;27;20375;-86
2022/09/11 07:48:32;;;;;;;;;;;;;;;;;;5127422;27;19930;-87
2022/09/11 07:51:01;;;;;;;;;;;;;;;;;;5116268;28;19930;-86
2022/09/11 07:53:27;;;;;;;;;;;;;;;;;;5116637;28;19916;-85
2022/09/11 07:55:53;;;;;;;;;;;;;;;;;;5116289;28;19957;-86
2022/09/11 07:58:19;;;;;;;;;;;;;;;;;;5097859;28;20291;-86
2022/09/11 08:00:44;;;;;;;;;;;;;;;;;;5116518;28;19920;-86
2022/09/11 08:03:09;;;;;;;;;;;;;;;;;;5116288;28;19916;-86
2022/09/11 08:05:35;;;;;;;;;;;;;;;;;;5126182;27;19919;-85
2022/09/11 08:08:00;;;;;;;;;;;;;;;;;;5136516;27;19928;-86
2022/09/11 08:10:26;;;;;;;;;;;;;;;;;;5136735;27;19968;-85
2022/09/11 08:12:52;;;;;;;;;;;;;;;;;;5137528;27;19915;-85
2022/09/11 08:15:20;;;;;;;;;;;;;;;;;;5117929;27;19915;-86
2022/09/11 08:17:46;;;;;;;;;;;;;;;;;;5117802;27;19916;-85
2022/09/11 08:20:12;;;;;;;;;;;;;;;;;;5136150;27;19972;-85
2022/09/11 08:22:38;;;;;;;;;;;;;;;;;;5124167;27;19915;-87
2022/09/11 08:25:03;;;;;;;;;;;;;;;;;;5129112;27;19926;-85
2022/09/11 08:27:31;;;;;;;;;;;;;;;;;;5116393;27;19939;-87
2022/09/11 08:29:57;;;;;;;;;;;;;;;;;;5134905;27;19915;-85
2022/09/11 08:32:23;;;;;;;;;;;;;;;;;;5113268;27;19926;-86
2022/09/11 08:34:48;;;;;;;;;;;;;;;;;;5123831;27;19939;-86
2022/09/11 08:37:14;;;;;;;;;;;;;;;;;;5129467;27;19934;-85
2022/09/11 08:39:39;;;;;;;;;;;;;;;;;;5114455;28;19954;-86
2022/09/11 08:42:07;;;;;;;;;;;;;;;;;;5126972;27;19916;-88
2022/09/11 08:44:41;;;;;;;;;;;;;;;;;;5113828;28;19969;-84
2022/09/11 08:47:09;;;;;;;;;;;;;;;;;;5123000;27;20059;-86
2022/09/11 08:49:41;;;;;;;;;;;;;;;;;;5134591;27;19956;-87
2022/09/11 08:52:11;;;;;;;;;;;;;;;;;;5116149;27;19922;-86
2022/09/11 08:54:38;;;;;;;;;;;;;;;;;;5134626;27;20378;-86
2022/09/11 08:57:06;;;;;;;;;;;;;;;;;;5134430;27;19916;-86
2022/09/11 08:59:52;;;;;;;;;;;;;;;;;;5122886;27;19958;-86
2022/09/11 09:02:24;;;;;;;;;;;;;;;;;;5113676;27;19969;-86
2022/09/11 09:05:25;;;;;;;;;;;;;;;;;;5113701;28;19963;-85
2022/09/11 09:07:56;;;;;;;;;;;;;;;;;;5046170;28;19927;-86
2022/09/11 09:10:30;;;;;;;;;;;;;;;;;;5030879;28;19927;-85
2022/09/11 09:12:58;;;;;;;;;;;;;;;;;;5030982;28;19913;-85
2022/09/11 09:15:43;;;;;;;;;;;;;;;;;;5030894;28;19951;-86
2022/09/11 09:18:31;;;;;;;;;;;;;;;;;;5031319;28;20016;-86
2022/09/11 09:21:01;;;;;;;;;;;;;;;;;;5051080;28;19938;-86
2022/09/11 09:23:44;;;;;;;;;;;;;;;;;;5050950;28;19995;-86
2022/09/11 09:26:17;;;;;;;;;;;;;;;;;;5051490;28;19917;-86
2022/09/11 09:28:46;;;;;;;;;;;;;;;;;;5052276;28;19924;-86
2022/09/11 09:31:14;;;;;;;;;;;;;;;;;;5034253;28;19917;-86
2022/09/11 09:33:51;;;;;;;;;;;;;;;;;;5050674;28;19976;-86
2022/09/11 09:36:19;;;;;;;;;;;;;;;;;;5050914;28;20410;-86
2022/09/11 09:38:45;;;;;;;;;;;;;;;;;;5051168;28;20385;-86
2022/09/11 09:41:26;;;;;;;;;;;;;;;;;;5065550;28;19943;-86
2022/09/11 09:44:00;;;;;;;;;;;;;;;;;;5113547;28;20063;-86
2022/09/11 09:46:31;;;;;;;;;;;;;;;;;;5121622;28;19927;-88
2022/09/11 09:48:56;;;;;;;;;;;;;;;;;;5117754;28;20295;-87
2022/09/11 09:51:22;;;;;;;;;;;;;;;;;;5099612;28;19964;-87
2022/09/11 09:53:59;;;;;;;;;;;;;;;;;;5118528;28;20327;-87
2022/09/11 09:56:25;;;;;;;;;;;;;;;;;;5129468;28;20022;-86
2022/09/11 09:59:09;;;;;;;;;;;;;;;;;;5135538;28;19942;-85
2022/09/11 10:01:51;;;;;;;;;;;;;;;;;;5116692;28;19924;-84
2022/09/11 10:04:19;;;;;;;;;;;;;;;;;;5113833;28;19966;-85
2022/09/11 10:06:46;;;;;;;;;;;;;;;;;;5127418;28;19919;-84
2022/09/11 10:09:25;;;;;;;;;;;;;;;;;;5116045;28;19924;-85
2022/09/11 10:12:13;;;;;;;;;;;;;;;;;;5116162;28;19962;-85
2022/09/11 10:14:49;;;;;;;;;;;;;;;;;;5135991;28;20310;-86
2022/09/11 10:17:28;;;;;;;;;;;;;;;;;;5123348;28;20018;-86
2022/09/11 10:19:54;;;;;;;;;;;;;;;;;;5113682;28;19920;-85
2022/09/11 10:22:19;;;;;;;;;;;;;;;;;;5094833;28;19973;-86
2022/09/11 10:24:51;;;;;;;;;;;;;;;;;;5111662;28;19916;-87
2022/09/11 10:27:18;;;;;;;;;;;;;;;;;;5111947;28;19923;-86
2022/09/11 10:29:50;;;;;;;;;;;;;;;;;;5111794;28;20387;-87
2022/09/11 10:32:16;;;;;;;;;;;;;;;;;;5112261;28;19962;-88
2022/09/11 10:34:42;;;;;;;;;;;;;;;;;;5126635;28;20378;-84
2022/09/11 10:37:12;;;;;;;;;;;;;;;;;;5133372;28;19923;-87
2022/09/11 10:39:39;;;;;;;;;;;;;;;;;;5134265;28;19922;-86
2022/09/11 10:42:16;;;;;;;;;;;;;;;;;;5115581;28;20013;-87
2022/09/11 10:44:43;;;;;;;;;;;;;;;;;;5115311;28;19927;-86
2022/09/11 10:47:16;;;;;;;;;;;;;;;;;;5134062;28;19916;-85
2022/09/11 10:49:42;;;;;;;;;;;;;;;;;;5133905;28;19960;-86
2022/09/11 10:52:07;;;;;;;;;;;;;;;;;;5134201;27;20005;-87
2022/09/11 10:54:51;;;;;;;;;;;;;;;;;;5119514;27;19916;-87
2022/09/11 10:57:19;;;;;;;;;;;;;;;;;;5137740;27;20038;-87
2022/09/11 10:59:49;;;;;;;;;;;;;;;;;;5137763;27;20513;-87
2022/09/11 11:02:27;;;;;;;;;;;;;;;;;;5137884;27;19998;-87
2022/09/11 11:04:53;;;;;;;;;;;;;;;;;;5137980;27;19922;-87
2022/09/11 11:07:31;;;;;;;;;;;;;;;;;;5137593;27;20330;-86
2022/09/11 11:10:15;;;;;;;;;;;;;;;;;;5136164;27;19920;-86
2022/09/11 11:12:40;;;;;;;;;;;;;;;;;;5140856;27;19930;-86
2022/09/11 11:15:06;;;;;;;;;;;;;;;;;;5118725;27;19919;-88
2022/09/11 11:17:31;;;;;;;;;;;;;;;;;;5140530;27;19920;-87
2022/09/11 11:20:02;;;;;;;;;;;;;;;;;;5122585;27;19912;-87
2022/09/11 11:22:44;;;;;;;;;;;;;;;;;;5120652;27;20290;-86
2022/09/11 11:25:18;;;;;;;;;;;;;;;;;;5120491;27;19968;-87
2022/09/11 11:28:02;;;;;;;;;;;;;;;;;;5138734;27;19961;-85
2022/09/11 11:30:40;;;;;;;;;;;;;;;;;;5140068;27;19931;-86
2022/09/11 11:33:19;;;;;;;;;;;;;;;;;;5143087;27;19919;-87
2022/09/11 11:36:06;;;;;;;;;;;;;;;;;;5149661;27;19922;-86
2022/09/11 11:38:31;;;;;;;;;;;;;;;;;;5139064;27;19950;-86
2022/09/11 11:41:04;;;;;;;;;;;;;;;;;;5143652;27;19954;-87
2022/09/11 11:43:33;;;;;;;;;;;;;;;;;;5118567;27;19923;-87
2022/09/11 11:46:11;;;;;;;;;;;;;;;;;;5133021;27;19995;-88
2022/09/11 11:48:46;;;;;;;;;;;;;;;;;;5118546;28;19937;-85
2022/09/11 11:51:15;;;;;;;;;;;;;;;;;;5116825;28;19998;-87
2022/09/11 11:53:43;;;;;;;;;;;;;;;;;;5116017;28;20286;-87
2022/09/11 11:56:27;;;;;;;;;;;;;;;;;;5116359;28;19916;-86
2022/09/11 11:58:53;;;;;;;;;;;;;;;;;;5116194;28;19916;-86
2022/09/11 12:01:27;;;;;;;;;;;;;;;;;;5129291;27;20079;-86
2022/09/11 12:04:00;;;;;;;;;;;;;;;;;;5131641;27;19915;-87
2022/09/11 12:06:25;;;;;;;;;;;;;;;;;;5136227;27;20290;-87
2022/09/11 12:08:51;;;;;;;;;;;;;;;;;;5136051;27;19915;-87
2022/09/11 12:11:22;;;;;;;;;;;;;;;;;;5136479;27;19915;-85
2022/09/11 12:13:48;;;;;;;;;;;;;;;;;;5118095;27;19938;-87
2022/09/11 12:16:18;;;;;;;;;;;;;;;;;;5135128;27;20366;-86
2022/09/11 12:19:03;;;;;;;;;;;;;;;;;;5136666;27;19915;-87
2022/09/11 12:21:30;;;;;;;;;;;;;;;;;;5135819;27;19916;-86
2022/09/11 12:23:55;;;;;;;;;;;;;;;;;;5135864;27;20240;-86
2022/09/11 12:26:26;;;;;;;;;;;;;;;;;;5135777;27;20040;-86
2022/09/11 12:29:17;;;;;;;;;;;;;;;;;;5131111;27;19927;-86
2022/09/11 12:31:52;;;;;;;;;;;;;;;;;;5143470;27;20366;-85
2022/09/11 12:34:22;;;;;;;;;;;;;;;;;;5114894;28;19923;-86
2022/09/11 12:37:06;;;;;;;;;;;;;;;;;;5115044;28;19926;-86
2022/09/11 12:39:33;;;;;;;;;;;;;;;;;;5114877;28;19923;-86
2022/09/11 12:42:18;;;;;;;;;;;;;;;;;;5114920;28;20343;-86
2022/09/11 12:44:47;;;;;;;;;;;;;;;;;;5114486;28;20351;-88
2022/09/11 12:47:17;;;;;;;;;;;;;;;;;;5096572;28;19940;-85
2022/09/11 12:49:51;;;;;;;;;;;;;;;;;;5114314;27;19923;-86
2022/09/11 12:52:23;;;;;;;;;;;;;;;;;;5096640;28;20007;-86
2022/09/11 12:54:49;;;;;;;;;;;;;;;;;;5129121;27;20021;-87
2022/09/11 12:57:18;;;;;;;;;;;;;;;;;;5135189;27;19916;-87
2022/09/11 12:59:51;;;;;;;;;;;;;;;;;;5135067;27;20390;-86
2022/09/11 13:02:32;;;;;;;;;;;;;;;;;;5116533;27;19915;-87
2022/09/11 13:04:58;;;;;;;;;;;;;;;;;;5112646;27;20331;-87
2022/09/11 13:07:30;;;;;;;;;;;;;;;;;;5109052;27;19979;-86
2022/09/11 13:09:59;;;;;;;;;;;;;;;;;;5133904;27;19957;-86
2022/09/11 13:12:25;;;;;;;;;;;;;;;;;;5126938;27;19978;-86
2022/09/11 13:14:54;;;;;;;;;;;;;;;;;;5126549;27;20354;-86
2022/09/11 13:17:40;;;;;;;;;;;;;;;;;;5128003;27;19927;-87
2022/09/11 13:20:08;;;;;;;;;;;;;;;;;;5092546;27;19916;-87
2022/09/11 13:22:34;;;;;;;;;;;;;;;;;;5124114;27;20026;-87
2022/09/11 13:25:04;;;;;;;;;;;;;;;;;;5110812;27;20015;-87
2022/09/11 13:27:29;;;;;;;;;;;;;;;;;;5126814;27;19934;-87
2022/09/11 13:29:55;;;;;;;;;;;;;;;;;;5124150;27;19919;-88
2022/09/11 13:32:22;;;;;;;;;;;;;;;;;;5122177;27;20378;-86
2022/09/11 13:35:00;;;;;;;;;;;;;;;;;;5125570;27;19919;-87
2022/09/11 13:37:30;;;;;;;;;;;;;;;;;;5119766;27;19919;-87
2022/09/11 13:39:56;;;;;;;;;;;;;;;;;;5135870;27;19931;-87
2022/09/11 13:42:24;;;;;;;;;;;;;;;;;;5143285;27;20044;-87
2022/09/11 13:44:51;;;;;;;;;;;;;;;;;;5115476;27;19930;-86
2022/09/11 13:47:23;;;;;;;;;;;;;;;;;;5134233;28;19972;-87
2022/09/11 13:49:51;;;;;;;;;;;;;;;;;;5134116;28;19922;-87
2022/09/11 13:52:17;;;;;;;;;;;;;;;;;;5133950;28;19920;-88
2022/09/11 13:54:51;;;;;;;;;;;;;;;;;;5133141;28;19920;-86
2022/09/11 13:57:17;;;;;;;;;;;;;;;;;;5135419;28;19915;-85
2022/09/11 13:59:45;;;;;;;;;;;;;;;;;;5135377;28;20386;-88
2022/09/11 14:02:17;;;;;;;;;;;;;;;;;;5141191;28;19916;-86
2022/09/11 14:04:43;;;;;;;;;;;;;;;;;;5115705;28;19928;-86
2022/09/11 14:07:16;;;;;;;;;;;;;;;;;;5134661;28;19972;-87
2022/09/11 14:09:44;;;;;;;;;;;;;;;;;;5134102;28;19911;-86
2022/09/11 14:12:10;;;;;;;;;;;;;;;;;;5114588;28;20015;-86
2022/09/11 14:14:36;;;;;;;;;;;;;;;;;;5115466;28;20001;-86
2022/09/11 14:17:01;;;;;;;;;;;;;;;;;;5134494;28;19916;-86
2022/09/11 14:19:28;;;;;;;;;;;;;;;;;;5115915;28;20374;-87
2022/09/11 14:21:54;;;;;;;;;;;;;;;;;;5134542;28;19958;-87
2022/09/11 14:24:27;;;;;;;;;;;;;;;;;;5133675;28;19954;-87
2022/09/11 14:26:57;;;;;;;;;;;;;;;;;;5134914;27;19920;-87
2022/09/11 14:29:27;;;;;;;;;;;;;;;;;;5139434;27;20406;-87
2022/09/11 14:31:53;;;;;;;;;;;;;;;;;;5138629;27;19916;-87
2022/09/11 14:34:28;;;;;;;;;;;;;;;;;;5121367;27;19922;-87
2022/09/11 14:37:04;;;;;;;;;;;;;;;;;;5123705;27;19964;-85
2022/09/11 14:39:29;;;;;;;;;;;;;;;;;;5127088;27;19924;-87
2022/09/11 14:41:58;;;;;;;;;;;;;;;;;;5138220;27;19923;-86
2022/09/11 14:44:25;;;;;;;;;;;;;;;;;;5137348;27;19920;-87
2022/09/11 14:46:54;;;;;;;;;;;;;;;;;;5138331;27;20378;-87
2022/09/11 14:49:20;;;;;;;;;;;;;;;;;;5138171;27;19937;-87
2022/09/11 14:51:52;;;;;;;;;;;;;;;;;;5138133;27;19920;-87
2022/09/11 14:54:19;;;;;;;;;;;;;;;;;;5138051;27;19921;-88
2022/09/11 14:56:45;;;;;;;;;;;;;;;;;;5130567;27;19912;-88
2022/09/11 14:59:11;;;;;;;;;;;;;;;;;;5122179;27;19929;-89
2022/09/11 15:01:37;;;;;;;;;;;;;;;;;;5118217;28;19911;-87
2022/09/11 15:04:02;;;;;;;;;;;;;;;;;;5128972;27;19941;-86
2022/09/11 15:06:28;;;;;;;;;;;;;;;;;;5119913;27;19928;-86
2022/09/11 15:08:53;;;;;;;;;;;;;;;;;;5131798;27;19926;-87
2022/09/11 15:11:19;;;;;;;;;;;;;;;;;;5135007;27;20051;-87
2022/09/11 15:13:45;;;;;;;;;;;;;;;;;;5138087;27;19915;-88
2022/09/11 15:16:10;;;;;;;;;;;;;;;;;;5137480;27;19915;-87
2022/09/11 15:18:36;;;;;;;;;;;;;;;;;;5117314;27;19919;-87
2022/09/11 15:21:03;;;;;;;;;;;;;;;;;;5135546;27;19920;-88
2022/09/11 15:23:28;;;;;;;;;;;;;;;;;;5137229;27;19915;-87
2022/09/11 15:26:00;;;;;;;;;;;;;;;;;;5134629;27;19919;-87
2022/09/11 15:28:30;;;;;;;;;;;;;;;;;;5117858;27;19930;-87
2022/09/11 15:30:57;;;;;;;;;;;;;;;;;;5136920;27;19954;-87
2022/09/11 15:33:23;;;;;;;;;;;;;;;;;;5135756;27;19962;-86
2022/09/11 15:35:49;;;;;;;;;;;;;;;;;;5136817;27;20213;-86
2022/09/11 15:38:14;;;;;;;;;;;;;;;;;;5137854;27;19919;-88
2022/09/11 15:40:41;;;;;;;;;;;;;;;;;;5139675;27;19919;-87
2022/09/11 15:43:06;;;;;;;;;;;;;;;;;;5119035;27;20279;-87
2022/09/11 15:45:32;;;;;;;;;;;;;;;;;;5138766;27;19938;-87
2022/09/11 15:48:01;;;;;;;;;;;;;;;;;;5138147;27;20436;-87
2022/09/11 15:50:28;;;;;;;;;;;;;;;;;;5142594;27;20014;-86
2022/09/11 15:52:54;;;;;;;;;;;;;;;;;;5140143;27;19965;-86
2022/09/11 15:55:20;;;;;;;;;;;;;;;;;;5138590;27;19927;-86
2022/09/11 15:57:45;;;;;;;;;;;;;;;;;;5116625;28;19915;-86
2022/09/11 16:00:11;;;;;;;;;;;;;;;;;;5132316;27;19916;-87
2022/09/11 16:02:36;;;;;;;;;;;;;;;;;;5135457;27;19923;-88
2022/09/11 16:05:02;;;;;;;;;;;;;;;;;;5124171;27;19923;-87
2022/09/11 16:07:27;;;;;;;;;;;;;;;;;;5125900;27;19919;-86
2022/09/11 16:09:53;;;;;;;;;;;;;;;;;;5125484;27;19960;-86
2022/09/11 16:12:18;;;;;;;;;;;;;;;;;;5126215;27;19923;-87
2022/09/11 16:14:44;;;;;;;;;;;;;;;;;;5125294;27;20009;-88
2022/09/11 16:17:10;;;;;;;;;;;;;;;;;;5123829;27;20034;-86
2022/09/11 16:19:37;;;;;;;;;;;;;;;;;;5135238;27;19923;-87
2022/09/11 16:22:04;;;;;;;;;;;;;;;;;;5135025;27;19956;-87
2022/09/11 16:24:30;;;;;;;;;;;;;;;;;;5135933;27;19919;-87
2022/09/11 16:26:56;;;;;;;;;;;;;;;;;;5136005;27;19923;-85
2022/09/11 16:29:22;;;;;;;;;;;;;;;;;;5117589;27;20367;-85
2022/09/11 16:31:48;;;;;;;;;;;;;;;;;;5110071;27;19916;-85
2022/09/11 16:34:14;;;;;;;;;;;;;;;;;;5119993;27;20794;-86
2022/09/11 16:36:41;;;;;;;;;;;;;;;;;;5126713;27;19926;-87
2022/09/11 16:39:10;;;;;;;;;;;;;;;;;;5144737;27;19923;-86
2022/09/11 16:41:36;;;;;;;;;;;;;;;;;;5143958;27;19973;-83
2022/09/11 16:44:01;;;;;;;;;;;;;;;;;;5139185;27;19962;-85
2022/09/11 16:46:27;;;;;;;;;;;;;;;;;;5124052;27;20002;-85
2022/09/11 16:48:53;;;;;;;;;;;;;;;;;;5142852;27;19923;-86
2022/09/11 16:51:19;;;;;;;;;;;;;;;;;;5102346;28;19931;-86
2022/09/11 16:53:45;;;;;;;;;;;;;;;;;;5127044;27;20316;-85
2022/09/11 16:56:11;;;;;;;;;;;;;;;;;;5142654;27;19927;-87
2022/09/11 16:58:37;;;;;;;;;;;;;;;;;;5143298;27;19919;-86